Time;durP1;ratioP1;P1;durP2;ratioP2;P2;SDS_P1;SDS_P2;PMS_P1;PMS_P2;Temp;Humidity;BMP_temperature;BMP_pressure;BME280_temperature;BME280_humidity;BME280_pressure;Samples;Min_cycle;Max_cycle;Signal;HPM_P1;HPM_P2
2024/04/11 00:02:12;;;;;;;6.57;2.63;;;;;;;6.41;66.14;100094.47;4955508;28;104260;-60
2024/04/11 00:04:37;;;;;;;12.05;3.70;;;;;;;5.96;68.30;100097.53;4950026;28;102950;-60
2024/04/11 00:07:09;;;;;;;7.07;3.20;;;;;;;6.09;67.10;100088.81;4951596;28;103485;-59
2024/04/11 00:09:35;;;;;;;7.03;3.05;;;;;;;6.12;67.36;100084.19;4939732;28;103508;-60
2024/04/11 00:12:00;;;;;;;11.35;3.72;;;;;;;6.05;67.57;100087.34;4949959;28;102732;-60
2024/04/11 00:14:26;;;;;;;9.82;3.55;;;;;;;6.00;67.84;100082.41;4936534;28;102823;-60
2024/04/11 00:16:54;;;;;;;11.15;3.55;;;;;;;5.90;68.60;100074.25;4951961;28;103249;-60
2024/04/11 00:19:20;;;;;;;10.27;3.17;;;;;;;5.67;70.03;100070.53;4942619;28;105039;-60
2024/04/11 00:21:48;;;;;;;12.13;3.28;;;;;;;5.39;70.94;100064.50;4952181;28;103601;-60
2024/04/11 00:24:17;;;;;;;12.23;3.67;;;;;;;5.38;71.15;100068.06;4965469;28;103223;-60
2024/04/11 00:26:47;;;;;;;13.88;5.13;;;;;;;5.31;71.72;100066.81;4966867;28;103223;-60
2024/04/11 00:29:15;;;;;;;15.93;5.45;;;;;;;5.15;72.24;100069.59;4944313;28;104529;-60
2024/04/11 00:31:44;;;;;;;7.10;3.17;;;;;;;5.47;70.37;100064.81;4955214;28;102722;-60
2024/04/11 00:34:16;;;;;;;9.70;2.70;;;;;;;5.31;71.17;100066.81;4952204;28;103064;-59
2024/04/11 00:36:47;;;;;;;8.35;3.22;;;;;;;5.12;71.45;100057.50;4949257;28;103238;-59
2024/04/11 00:39:20;;;;;;;5.78;2.35;;;;;;;5.20;71.60;100059.63;4948946;28;103445;-60
2024/04/11 00:41:50;;;;;;;7.07;2.28;;;;;;;5.49;69.62;100059.50;4954315;28;102778;-59
2024/04/11 00:44:19;;;;;;;5.32;1.92;;;;;;;5.65;68.52;100061.94;4953952;28;105313;-60
2024/04/11 00:46:52;;;;;;;10.20;2.97;;;;;;;5.76;67.69;100059.41;4946186;28;107815;-60
2024/04/11 00:49:19;;;;;;;7.85;3.10;;;;;;;5.47;69.86;100059.56;4935872;28;103470;-59
2024/04/11 00:51:46;;;;;;;11.75;3.00;;;;;;;5.15;71.17;100061.72;4958905;28;102784;-59
2024/04/11 00:54:16;;;;;;;6.47;2.28;;;;;;;5.26;70.90;100058.38;4918496;28;103024;-60
2024/04/11 00:56:44;;;;;;;13.57;3.35;;;;;;;5.24;71.04;100061.09;4953150;28;103761;-60
2024/04/11 00:59:12;;;;;;;6.47;2.58;;;;;;;5.37;70.98;100055.91;4952986;28;103375;-59
2024/04/11 01:01:38;;;;;;;7.30;2.50;;;;;;;5.31;70.77;100064.16;4952924;28;102858;-60
2024/04/11 01:04:04;;;;;;;6.93;2.25;;;;;;;5.46;70.68;100059.69;4942959;28;102832;-60
2024/04/11 01:07:06;;;;;;;12.10;3.20;;;;;;;4.76;73.28;100066.78;4950396;28;103373;-60
2024/04/11 01:09:28;;;;;;;7.05;2.40;;;;;;;5.06;71.67;100063.13;4916366;28;105411;-60
2024/04/11 01:11:56;;;;;;;7.85;3.20;;;;;;;5.36;70.56;100063.84;4934785;28;102774;-60
2024/04/11 01:14:24;;;;;;;12.95;2.78;;;;;;;5.27;70.66;100054.81;4938219;28;102981;-59
2024/04/11 01:16:50;;;;;;;7.57;2.60;;;;;;;4.87;73.12;100063.47;4929476;28;105829;-59
2024/04/11 01:19:22;;;;;;;7.22;2.80;;;;;;;5.04;71.37;100062.38;4958086;28;103184;-59
2024/04/11 01:21:48;;;;;;;6.63;2.50;;;;;;;4.87;72.76;100068.72;4947397;28;102951;-60
2024/04/11 01:24:17;;;;;;;15.07;3.15;;;;;;;4.63;73.87;100071.13;4939570;28;102722;-60
2024/04/11 01:26:43;;;;;;;8.27;3.15;;;;;;;4.49;74.51;100074.59;4922690;28;103343;-60
2024/04/11 01:29:11;;;;;;;8.50;2.63;;;;;;;4.81;73.11;100075.22;4938215;28;103630;-59
2024/04/11 01:31:42;;;;;;;8.20;2.75;;;;;;;5.05;71.06;100071.94;4952024;28;103907;-59
2024/04/11 01:34:10;;;;;;;10.35;3.10;;;;;;;4.54;73.43;100077.78;4955663;28;103116;-59
2024/04/11 01:36:36;;;;;;;7.50;3.03;;;;;;;4.65;73.98;100077.97;4956016;28;103249;-59
2024/04/11 01:39:09;;;;;;;7.05;2.97;;;;;;;4.70;72.97;100090.78;4941780;28;105262;-59
2024/04/11 01:41:39;;;;;;;11.43;2.92;;;;;;;4.88;72.02;100086.16;4953831;28;102809;-59
2024/04/11 01:44:07;;;;;;;9.60;3.50;;;;;;;4.90;71.89;100078.19;4949055;28;103252;-59
2024/04/11 01:46:37;;;;;;;10.65;3.28;;;;;;;4.72;73.04;100086.28;4956389;28;103374;-59
2024/04/11 01:49:03;;;;;;;11.45;3.30;;;;;;;4.88;72.01;100080.09;4955424;28;103624;-59
2024/04/11 01:51:31;;;;;;;8.82;3.10;;;;;;;4.90;72.08;100072.94;4953790;28;103978;-59
2024/04/11 01:53:59;;;;;;;6.80;3.28;;;;;;;4.93;71.92;100078.84;4941350;28;102771;-59
2024/04/11 01:56:25;;;;;;;9.80;2.90;;;;;;;5.02;71.00;100072.16;4951632;28;103273;-60
2024/04/11 01:58:55;;;;;;;10.10;3.10;;;;;;;4.58;73.35;100068.78;4939603;28;106186;-60
2024/04/11 02:01:21;;;;;;;10.18;2.90;;;;;;;4.71;72.74;100078.53;4963971;28;103611;-59
2024/04/11 02:03:47;;;;;;;11.20;3.35;;;;;;;4.83;71.44;100069.84;4933485;28;102726;-59
2024/04/11 02:06:14;;;;;;;9.23;3.10;;;;;;;4.79;71.21;100071.00;4956252;28;105498;-60
2024/04/11 02:08:41;;;;;;;8.00;3.28;;;;;;;4.53;72.92;100070.00;4952815;28;103469;-59
2024/04/11 02:11:07;;;;;;;7.78;2.67;;;;;;;4.77;72.47;100072.91;4954218;28;103017;-60
2024/04/11 02:13:35;;;;;;;8.63;3.25;;;;;;;4.55;72.57;100062.91;4965091;28;103201;-59
2024/04/11 02:16:01;;;;;;;10.52;3.53;;;;;;;4.21;74.93;100068.44;4951882;28;103407;-59
2024/04/11 02:18:29;;;;;;;9.18;3.22;;;;;;;4.10;75.24;100076.09;4952029;28;103928;-59
2024/04/11 02:20:56;;;;;;;8.90;2.97;;;;;;;4.40;74.61;100075.16;4950118;28;103120;-59
2024/04/11 02:23:28;;;;;;;12.73;3.53;;;;;;;4.53;73.27;100070.00;4968749;28;104019;-60
2024/04/11 02:25:59;;;;;;;7.97;3.10;;;;;;;4.45;73.30;100073.97;4965254;28;103290;-60
2024/04/11 02:28:29;;;;;;;10.80;2.90;;;;;;;4.51;73.32;100077.13;4952170;28;105292;-59
2024/04/11 02:30:57;;;;;;;11.55;3.15;;;;;;;4.62;72.74;100075.53;4952620;28;102944;-60
2024/04/11 02:33:22;;;;;;;7.57;2.60;;;;;;;4.74;71.59;100079.19;4953383;28;102765;-60
2024/04/11 02:35:50;;;;;;;10.55;3.03;;;;;;;4.74;71.45;100083.56;4940085;28;105886;-60
2024/04/11 02:38:18;;;;;;;6.85;2.45;;;;;;;4.82;71.21;100081.28;4957849;28;103123;-60
2024/04/11 02:40:47;;;;;;;8.13;2.85;;;;;;;4.79;71.29;100076.25;4972133;28;102711;-59
2024/04/11 02:43:15;;;;;;;11.82;3.22;;;;;;;4.61;72.06;100078.25;4957548;28;102927;-59
2024/04/11 02:45:40;;;;;;;8.13;3.13;;;;;;;3.96;74.99;100085.66;4950129;28;103332;-60
2024/04/11 02:48:06;;;;;;;9.70;3.30;;;;;;;4.13;75.05;100084.63;4940639;28;103102;-59
2024/04/11 02:50:32;;;;;;;9.73;2.80;;;;;;;4.35;73.40;100082.47;4956681;28;103217;-59
2024/04/11 02:53:00;;;;;;;9.52;2.80;;;;;;;4.43;72.51;100085.50;4955595;28;104114;-60
2024/04/11 02:55:28;;;;;;;6.82;2.53;;;;;;;4.22;73.70;100082.38;4953719;28;103450;-60
2024/04/11 02:57:54;;;;;;;8.07;2.40;;;;;;;4.35;73.66;100085.09;4955705;28;104908;-59
2024/04/11 03:00:23;;;;;;;5.88;2.22;;;;;;;4.53;72.21;100080.50;4940448;28;102776;-60
2024/04/11 03:02:55;;;;;;;8.30;2.42;;;;;;;4.62;71.67;100085.19;4953803;28;103488;-59
2024/04/11 03:05:25;;;;;;;7.25;2.20;;;;;;;4.56;72.42;100089.03;4952767;28;103368;-60
2024/04/11 03:07:51;;;;;;;6.70;2.10;;;;;;;4.59;72.22;100090.63;4971440;28;103495;-59
2024/04/11 03:10:19;;;;;;;8.02;2.72;;;;;;;4.58;71.93;100088.94;4955214;28;102872;-59
2024/04/11 03:12:44;;;;;;;8.38;2.55;;;;;;;4.35;72.67;100092.97;4950474;28;103051;-59
2024/04/11 03:15:10;;;;;;;7.30;2.63;;;;;;;4.45;72.65;100102.84;4940955;28;103245;-59
2024/04/11 03:17:36;;;;;;;8.70;2.33;;;;;;;4.48;72.62;100100.00;4945447;28;105170;-60
2024/04/11 03:20:05;;;;;;;7.78;2.80;;;;;;;4.40;71.91;100102.28;4962929;28;103070;-59
2024/04/11 03:22:31;;;;;;;7.50;2.80;;;;;;;4.35;72.51;100093.84;4944969;28;103031;-60
2024/04/11 03:24:59;;;;;;;6.93;2.70;;;;;;;4.07;73.00;100094.66;4933397;28;104215;-59
2024/04/11 03:27:25;;;;;;;10.57;2.70;;;;;;;3.84;74.16;100103.88;4948893;28;103424;-59
2024/04/11 03:29:50;;;;;;;7.75;2.70;;;;;;;3.73;74.15;100099.28;4925405;28;103640;-59
2024/04/11 03:32:18;;;;;;;11.45;3.25;;;;;;;3.74;74.38;100104.41;4935141;28;103165;-59
2024/04/11 03:34:44;;;;;;;13.52;2.75;;;;;;;3.89;73.99;100102.69;4946960;28;109333;-59
2024/04/11 03:37:10;;;;;;;11.50;2.80;;;;;;;3.91;74.46;100100.81;4950089;28;104657;-59
2024/04/11 03:39:36;;;;;;;5.15;2.13;;;;;;;4.09;73.69;100095.41;4949542;28;103305;-59
2024/04/11 03:42:02;;;;;;;6.88;2.70;;;;;;;3.97;73.91;100105.69;4950075;28;102965;-59
2024/04/11 03:44:28;;;;;;;9.82;2.85;;;;;;;3.78;75.19;100105.91;4936098;28;103871;-60
2024/04/11 03:46:54;;;;;;;7.28;2.78;;;;;;;3.81;74.38;100103.16;4940297;28;106173;-59
2024/04/11 03:49:25;;;;;;;10.95;2.95;;;;;;;3.45;75.80;100101.72;4951442;28;103123;-59
2024/04/11 03:51:52;;;;;;;8.35;2.72;;;;;;;3.18;77.60;100111.13;4946208;28;102863;-59
2024/04/11 03:54:18;;;;;;;8.82;2.63;;;;;;;3.15;77.85;100114.78;4950529;28;103518;-59
2024/04/11 03:56:46;;;;;;;8.30;2.75;;;;;;;3.28;77.46;100114.94;4947594;28;106394;-59
2024/04/11 03:59:12;;;;;;;11.82;3.20;;;;;;;3.44;76.61;100115.72;4949035;28;102812;-59
2024/04/11 04:01:38;;;;;;;6.05;2.55;;;;;;;3.57;76.36;100112.44;4918795;28;103894;-59
2024/04/11 04:04:03;;;;;;;11.98;3.80;;;;;;;3.47;75.99;100107.72;4950542;28;104170;-59
2024/04/11 04:06:33;;;;;;;9.30;2.70;;;;;;;3.75;75.77;100106.13;4933876;28;105643;-58
2024/04/11 04:09:00;;;;;;;11.05;2.65;;;;;;;3.60;75.82;100117.47;4935154;28;102766;-59
2024/04/11 04:11:29;;;;;;;8.00;2.55;;;;;;;3.64;75.94;100109.38;4943791;28;102839;-59
2024/04/11 04:13:54;;;;;;;7.45;2.80;;;;;;;3.86;75.27;100112.50;4948410;28;103261;-59
2024/04/11 04:16:21;;;;;;;7.22;2.03;;;;;;;4.00;73.61;100119.56;4930828;28;106095;-61
2024/04/11 04:18:48;;;;;;;5.72;2.08;;;;;;;4.10;73.21;100118.91;4953039;28;103142;-59
2024/04/11 04:21:14;;;;;;;12.20;2.65;;;;;;;4.00;73.21;100128.25;4916868;28;103201;-59
2024/04/11 04:23:43;;;;;;;8.13;3.10;;;;;;;3.79;74.21;100122.50;4927996;28;104566;-60
2024/04/11 04:26:10;;;;;;;6.72;2.42;;;;;;;3.78;74.24;100116.41;4939779;28;103600;-60
2024/04/11 04:28:38;;;;;;;9.07;3.03;;;;;;;3.44;74.77;100118.34;4948834;28;104107;-59
2024/04/11 04:31:20;;;;;;;9.20;3.20;;;;;;;3.34;75.37;100124.22;4946782;28;102890;-60
2024/04/11 04:33:52;;;;;;;8.77;3.03;;;;;;;3.26;76.18;100129.88;4946654;28;107772;-60
2024/04/11 04:36:20;;;;;;;17.45;4.22;;;;;;;3.31;76.51;100133.09;4918643;28;103386;-60
2024/04/11 04:38:46;;;;;;;8.90;3.20;;;;;;;3.36;75.44;100138.06;4946513;28;102866;-60
2024/04/11 04:41:13;;;;;;;7.97;3.17;;;;;;;3.07;77.16;100140.53;4929439;28;103570;-59
2024/04/11 04:43:43;;;;;;;11.57;3.85;;;;;;;3.12;77.02;100147.19;4944547;28;103186;-60
2024/04/11 04:46:15;;;;;;;9.45;2.97;;;;;;;2.90;77.99;100144.09;4941663;28;105101;-60
2024/04/11 04:48:41;;;;;;;6.93;3.00;;;;;;;3.06;77.94;100147.53;4932151;28;102764;-65
2024/04/11 04:51:13;;;;;;;8.70;2.85;;;;;;;3.33;77.22;100157.41;4933422;28;103464;-65
2024/04/11 04:53:41;;;;;;;6.70;2.20;;;;;;;3.57;76.26;100159.59;4932644;28;103189;-65
2024/04/11 04:56:09;;;;;;;7.35;2.80;;;;;;;3.71;74.73;100159.63;4937469;28;103081;-66
2024/04/11 04:58:36;;;;;;;6.68;2.40;;;;;;;3.80;74.18;100161.72;4952646;28;103123;-65
2024/04/11 05:01:04;;;;;;;8.25;3.00;;;;;;;3.86;73.39;100164.94;4937641;28;103229;-65
2024/04/11 05:03:34;;;;;;;6.28;2.28;;;;;;;3.72;73.76;100171.81;4926707;28;104130;-65
2024/04/11 05:06:04;;;;;;;11.40;3.13;;;;;;;3.49;74.56;100173.13;4949730;28;104685;-65
2024/04/11 05:08:32;;;;;;;6.80;2.58;;;;;;;3.58;75.31;100171.75;4925705;28;103001;-66
2024/04/11 05:11:10;;;;;;;14.77;3.60;;;;;;;3.49;74.95;100173.13;4932325;28;103233;-60
2024/04/11 05:13:39;;;;;;;14.73;3.45;;;;;;;3.38;75.24;100180.72;4947333;28;103214;-60
2024/04/11 05:16:07;;;;;;;12.65;3.20;;;;;;;3.55;75.74;100185.00;4940036;28;103412;-60
2024/04/11 05:18:37;;;;;;;6.43;2.80;;;;;;;3.56;75.64;100186.72;4928770;28;103082;-60
2024/04/11 05:21:18;;;;;;;11.65;3.28;;;;;;;3.71;76.03;100182.34;4947388;28;102842;-65
2024/04/11 05:23:44;;;;;;;7.55;2.60;;;;;;;3.93;74.77;100189.84;4945407;28;111067;-65
2024/04/11 05:26:14;;;;;;;5.32;2.70;;;;;;;4.09;74.35;100197.69;4921835;28;106166;-64
2024/04/11 05:28:44;;;;;;;7.85;2.85;;;;;;;4.28;73.57;100186.94;4954104;28;103722;-65
2024/04/11 05:31:16;;;;;;;9.52;3.03;;;;;;;4.35;73.80;100193.50;4943540;28;103279;-65
2024/04/11 05:33:47;;;;;;;8.57;3.53;;;;;;;4.12;75.09;100193.06;4916955;28;104780;-66
2024/04/11 05:36:17;;;;;;;9.30;3.38;;;;;;;4.14;74.90;100201.72;4965182;28;103236;-65
2024/04/11 05:38:46;;;;;;;10.45;3.38;;;;;;;4.23;75.55;100191.59;4944057;28;102826;-65
2024/04/11 05:41:14;;;;;;;16.83;3.67;;;;;;;4.03;77.09;100201.47;4963024;28;103402;-66
2024/04/11 05:43:43;;;;;;;11.38;3.03;;;;;;;4.45;75.53;100199.03;4936981;28;104070;-66
2024/04/11 05:46:22;;;;;;;12.43;3.78;;;;;;;4.72;74.88;100186.03;4936460;28;105770;-63
2024/04/11 05:48:49;;;;;;;24.13;2.95;;;;;;;4.88;73.32;100183.31;4945287;28;103290;-64
2024/04/11 05:51:21;;;;;;;10.00;2.95;;;;;;;5.04;72.14;100191.06;4935549;28;103108;-64
2024/04/11 05:53:47;;;;;;;9.18;3.15;;;;;;;5.12;71.45;100188.81;4945640;28;107999;-64
2024/04/11 05:56:14;;;;;;;8.82;2.92;;;;;;;5.05;72.35;100202.44;4933296;28;103320;-63
2024/04/11 05:58:42;;;;;;;12.50;3.55;;;;;;;5.14;73.32;100197.44;4946535;28;103302;-64
2024/04/11 06:01:09;;;;;;;10.57;4.65;;;;;;;4.99;74.76;100193.13;4934646;28;102951;-64
2024/04/11 06:03:46;;;;;;;10.95;4.43;;;;;;;4.98;75.54;100201.97;4930228;28;103877;-63
2024/04/11 06:06:13;;;;;;;11.88;3.90;;;;;;;5.24;75.42;100204.72;4929116;28;106275;-64
2024/04/11 06:08:43;;;;;;;9.23;3.22;;;;;;;5.43;73.80;100202.63;4915334;28;102818;-64
2024/04/11 06:11:12;;;;;;;9.43;3.63;;;;;;;5.68;73.22;100206.28;4949810;28;103179;-64
2024/04/11 06:13:41;;;;;;;14.02;6.18;;;;;;;5.93;72.02;100202.06;4944795;28;103625;-64
2024/04/11 06:16:12;;;;;;;11.25;5.28;;;;;;;6.14;71.76;100195.44;4950423;28;103391;-63
2024/04/11 06:18:38;;;;;;;11.35;4.18;;;;;;;6.33;70.63;100196.81;4950974;28;102850;-63
2024/04/11 06:21:11;;;;;;;12.35;4.35;;;;;;;6.49;70.40;100198.41;4949205;28;102774;-65
2024/04/11 06:23:42;;;;;;;14.15;4.43;;;;;;;6.64;70.17;100205.22;4944442;28;103259;-64
2024/04/11 06:26:27;;;;;;;12.98;4.55;;;;;;;6.62;70.55;100204.50;4933516;28;106072;-65
2024/04/11 06:29:38;;;;;;;12.95;4.05;;;;;;;6.77;70.14;100200.81;4902634;28;102994;-65
2024/04/11 06:32:20;;;;;;;10.90;3.90;;;;;;;7.02;68.69;100207.00;4935595;28;103023;-65
2024/04/11 06:34:52;;;;;;;13.57;4.82;;;;;;;6.74;70.47;100201.00;4950239;28;103241;-65
2024/04/11 06:37:21;;;;;;;14.02;4.28;;;;;;;6.97;69.58;100207.31;4922300;28;103319;-66
2024/04/11 06:39:49;;;;;;;14.55;5.25;;;;;;;6.84;70.69;100205.63;4944300;28;103144;-65
2024/04/11 06:42:19;;;;;;;17.77;4.45;;;;;;;7.14;69.93;100214.03;4946507;28;102871;-65
2024/04/11 06:44:45;;;;;;;9.60;3.70;;;;;;;7.52;68.78;100216.66;4931878;28;107758;-66
2024/04/11 06:47:14;;;;;;;10.70;3.83;;;;;;;7.74;67.29;100214.16;4938287;28;103271;-66
2024/04/11 06:49:43;;;;;;;13.32;4.03;;;;;;;7.90;67.44;100216.50;4923172;28;104238;-66
2024/04/11 06:52:12;;;;;;;15.23;5.15;;;;;;;7.75;67.09;100217.63;4963329;28;102850;-66
2024/04/11 06:54:43;;;;;;;9.55;4.32;;;;;;;8.01;66.93;100228.88;4952780;28;103370;-66
2024/04/11 06:57:11;;;;;;;17.27;4.90;;;;;;;8.10;65.39;100230.84;4953912;28;103457;-64
2024/04/11 06:59:42;;;;;;;19.63;5.85;;;;;;;7.61;66.68;100231.81;4949360;28;104057;-65
2024/04/11 07:02:08;;;;;;;12.57;4.15;;;;;;;7.85;65.08;100228.31;4948125;28;103171;-65
2024/04/11 07:04:33;;;;;;;17.15;4.30;;;;;;;7.80;64.60;100226.88;4933748;28;103313;-65
2024/04/11 07:07:00;;;;;;;14.32;4.53;;;;;;;8.12;64.92;100226.28;4948539;28;103433;-65
2024/04/11 07:09:37;;;;;;;12.05;4.53;;;;;;;8.41;63.71;100230.31;4937921;28;102739;-65
2024/04/11 07:12:09;;;;;;;11.45;4.68;;;;;;;8.55;63.48;100237.22;4952012;28;104033;-65
2024/04/11 07:14:35;;;;;;;14.25;4.93;;;;;;;8.73;63.04;100232.34;4936512;28;103320;-65
2024/04/11 07:17:11;;;;;;;11.90;4.20;;;;;;;9.05;62.18;100228.97;4951919;28;103790;-66
2024/04/11 07:19:42;;;;;;;12.75;3.70;;;;;;;9.20;61.66;100227.78;4950438;28;103109;-65
2024/04/11 07:22:09;;;;;;;15.38;4.60;;;;;;;9.27;61.41;100228.13;4956263;28;103631;-65
2024/04/11 07:24:38;;;;;;;16.88;4.97;;;;;;;9.63;61.29;100234.91;4950852;28;103283;-65
2024/04/11 07:27:11;;;;;;;13.02;4.35;;;;;;;9.87;60.26;100235.69;4960444;28;103221;-65
2024/04/11 07:29:38;;;;;;;26.00;5.28;;;;;;;9.68;60.17;100237.19;4956686;28;102850;-65
2024/04/11 07:32:07;;;;;;;22.73;4.68;;;;;;;9.93;60.38;100243.09;4957731;28;102847;-65
2024/04/11 07:34:33;;;;;;;17.38;4.25;;;;;;;10.31;58.15;100239.13;4941032;28;104503;-65
2024/04/11 07:36:59;;;;;;;19.95;4.85;;;;;;;10.40;58.50;100238.38;4963595;28;103177;-66
2024/04/11 07:39:26;;;;;;;13.07;4.32;;;;;;;10.55;57.17;100235.41;4941162;28;102954;-65
2024/04/11 07:42:18;;;;;;;20.38;5.03;;;;;;;10.63;56.56;100230.28;4974102;28;103618;-66
2024/04/11 07:44:48;;;;;;;14.45;4.35;;;;;;;11.15;56.08;100240.00;4938561;28;109810;-66
2024/04/11 07:47:47;;;;;;;11.43;3.15;;;;;;;11.57;53.50;100231.91;4961899;28;103169;-66
2024/04/11 07:50:21;;;;;;;12.80;3.28;;;;;;;12.10;52.75;100228.88;4921196;28;102808;-65
2024/04/11 07:52:47;;;;;;;14.20;4.15;;;;;;;12.36;52.06;100224.81;4963000;28;102998;-66
2024/04/11 07:55:14;;;;;;;12.50;3.58;;;;;;;12.88;50.85;100224.41;4956867;28;105841;-66
2024/04/11 07:57:43;;;;;;;9.15;2.90;;;;;;;12.89;51.18;100223.38;4956760;28;103883;-65
2024/04/11 08:00:20;;;;;;;9.40;2.83;;;;;;;13.24;50.71;100216.53;4959445;28;104618;-66
2024/04/11 08:02:48;;;;;;;12.93;3.05;;;;;;;13.68;48.07;100214.06;4958026;28;102902;-66
2024/04/11 08:05:16;;;;;;;10.05;2.58;;;;;;;14.10;46.96;100213.44;4946124;28;103592;-66
2024/04/11 08:07:42;;;;;;;13.27;2.97;;;;;;;13.65;46.70;100218.84;4962236;28;103081;-66
2024/04/11 08:10:20;;;;;;;9.82;3.03;;;;;;;13.01;47.71;100221.38;4957094;28;102823;-66
2024/04/11 08:12:51;;;;;;;10.65;2.60;;;;;;;14.29;47.27;100224.88;4958977;28;103082;-66
2024/04/11 08:15:16;;;;;;;17.80;2.97;;;;;;;14.55;46.16;100226.75;4963491;28;104332;-67
2024/04/11 08:17:42;;;;;;;10.23;2.80;;;;;;;14.92;44.68;100226.50;4951431;28;105865;-66
2024/04/11 08:20:14;;;;;;;9.32;2.47;;;;;;;14.73;44.53;100224.91;4955017;28;102725;-66
2024/04/11 08:22:42;;;;;;;8.07;2.72;;;;;;;15.27;45.08;100225.66;4956600;28;103155;-66
2024/04/11 08:25:12;;;;;;;9.07;3.03;;;;;;;15.83;44.27;100213.47;4959851;28;103347;-66
2024/04/11 08:27:44;;;;;;;12.45;3.13;;;;;;;15.76;44.81;100220.47;4965867;28;103197;-66
2024/04/11 08:30:15;;;;;;;16.98;3.20;;;;;;;15.59;42.46;100215.06;4932251;28;103352;-66
2024/04/11 08:32:46;;;;;;;11.95;2.78;;;;;;;15.83;43.20;100226.00;4950033;28;102923;-66
2024/04/11 08:35:13;;;;;;;7.93;2.20;;;;;;;16.54;42.16;100229.00;4952152;28;104634;-66
2024/04/11 08:37:39;;;;;;;8.77;2.60;;;;;;;17.16;42.40;100230.19;4944453;28;105025;-66
2024/04/11 08:40:11;;;;;;;7.57;2.17;;;;;;;17.00;41.38;100239.13;4954617;28;102725;-66
2024/04/11 08:42:38;;;;;;;33.78;3.97;;;;;;;17.80;39.62;100229.19;4963222;28;102923;-65
2024/04/11 08:45:06;;;;;;;10.77;2.70;;;;;;;15.45;40.56;100238.91;4945965;28;103994;-66
2024/04/11 08:47:34;;;;;;;9.95;2.28;;;;;;;16.66;41.61;100227.63;4966489;28;105117;-66
2024/04/11 08:50:00;;;;;;;7.32;2.50;;;;;;;17.14;39.32;100229.56;4949808;28;102794;-66
2024/04/11 08:52:31;;;;;;;8.23;2.15;;;;;;;17.71;41.18;100226.56;4954385;28;103322;-67
2024/04/11 08:54:57;;;;;;;10.32;2.40;;;;;;;16.02;40.52;100225.69;4952329;28;103437;-67
2024/04/11 08:57:24;;;;;;;13.10;2.40;;;;;;;16.24;39.55;100231.34;4951644;28;103616;-66
2024/04/11 08:59:51;;;;;;;9.70;2.47;;;;;;;17.52;39.70;100222.50;4954947;28;102863;-67
2024/04/11 09:02:16;;;;;;;12.77;2.28;;;;;;;17.06;36.36;100231.22;4955366;28;102765;-67
2024/04/11 09:04:42;;;;;;;10.65;2.20;;;;;;;18.16;38.96;100229.47;4932021;28;103299;-67
2024/04/11 09:07:21;;;;;;;10.48;2.47;;;;;;;17.85;38.49;100229.50;4952570;28;103858;-67
2024/04/11 09:09:52;;;;;;;9.50;2.28;;;;;;;17.58;37.93;100231.69;4957275;28;102742;-67
2024/04/11 09:12:22;;;;;;;9.90;2.10;;;;;;;18.20;37.67;100225.41;4961858;28;104061;-67
2024/04/11 09:14:49;;;;;;;7.28;2.10;;;;;;;18.05;36.61;100222.69;4954476;28;108198;-66
2024/04/11 09:17:15;;;;;;;12.50;2.35;;;;;;;18.18;36.52;100227.44;4941046;28;104171;-67
2024/04/11 09:19:42;;;;;;;12.85;2.45;;;;;;;19.26;35.69;100229.00;4970439;28;102858;-67
2024/04/11 09:22:16;;;;;;;9.90;2.33;;;;;;;19.16;36.01;100232.81;4932472;28;102769;-67
2024/04/11 09:24:46;;;;;;;9.83;2.20;;;;;;;19.03;35.19;100238.88;4938777;28;106021;-67
2024/04/11 09:27:17;;;;;;;7.07;1.83;;;;;;;18.99;34.52;100237.56;4954073;28;103172;-67
2024/04/11 09:29:51;;;;;;;7.82;1.50;;;;;;;18.79;34.60;100244.47;4953893;28;102842;-67
2024/04/11 09:32:21;;;;;;;4.47;1.43;;;;;;;19.05;34.89;100244.88;4950810;28;102859;-67
2024/04/11 09:34:53;;;;;;;7.40;1.90;;;;;;;19.74;33.41;100241.97;4956105;28;109868;-67
2024/04/11 09:37:23;;;;;;;7.57;1.58;;;;;;;19.14;33.28;100239.41;4954061;28;103255;-65
2024/04/11 09:39:56;;;;;;;5.47;1.80;;;;;;;19.01;34.44;100248.13;4930920;28;103231;-66
2024/04/11 09:42:26;;;;;;;7.25;1.70;;;;;;;19.95;33.65;100249.25;4944633;28;103196;-67
2024/04/11 09:44:53;;;;;;;4.53;1.30;;;;;;;19.71;32.89;100244.00;4951617;28;103445;-68
2024/04/11 09:47:26;;;;;;;4.95;1.52;;;;;;;19.54;33.68;100246.09;4963025;28;104870;-66
2024/04/11 09:49:59;;;;;;;9.23;1.65;;;;;;;19.69;33.51;100251.44;4950090;28;103016;-67
2024/04/11 09:52:34;;;;;;;18.15;2.95;;;;;;;19.61;33.27;100256.09;4955180;28;103008;-67
2024/04/11 09:55:09;;;;;;;7.95;1.73;;;;;;;18.77;34.19;100251.88;4953547;28;103997;-67
2024/04/11 09:57:39;;;;;;;7.45;1.77;;;;;;;19.36;33.72;100246.53;4946380;28;105239;-67
2024/04/11 10:00:09;;;;;;;5.68;1.73;;;;;;;20.19;33.69;100256.13;4947565;28;102764;-68
2024/04/11 10:02:38;;;;;;;5.00;1.40;;;;;;;20.42;33.43;100255.06;4955218;28;102886;-67
2024/04/11 10:05:16;;;;;;;7.70;2.00;;;;;;;20.14;34.25;100258.56;4951656;28;103471;-67
2024/04/11 10:07:45;;;;;;;10.55;2.25;;;;;;;19.92;33.11;100260.41;4950572;28;108294;-67
2024/04/11 10:10:25;;;;;;;9.48;2.03;;;;;;;19.72;34.17;100253.75;4958885;28;102760;-67
2024/04/11 10:12:58;;;;;;;9.02;2.22;;;;;;;19.60;33.53;100246.34;4941395;28;103242;-67
2024/04/11 10:15:29;;;;;;;8.98;2.17;;;;;;;19.30;34.92;100247.25;4929568;28;104159;-67
2024/04/11 10:18:10;;;;;;;9.45;2.15;;;;;;;19.05;34.58;100249.41;4943013;28;105040;-67
2024/04/11 10:21:01;;;;;;;12.43;2.00;;;;;;;19.71;34.56;100254.75;4951462;28;102962;-67
2024/04/11 10:23:32;;;;;;;8.32;1.50;;;;;;;17.56;36.26;100255.13;4951026;28;102782;-67
2024/04/11 10:26:02;;;;;;;4.55;1.63;;;;;;;18.81;34.40;100255.84;4959825;28;103530;-68
2024/04/11 10:28:38;;;;;;;6.00;1.52;;;;;;;17.92;34.26;100259.91;4936718;28;103515;-67
2024/04/11 10:31:12;;;;;;;8.20;1.63;;;;;;;18.05;34.17;100260.22;4955491;28;102761;-67
2024/04/11 10:33:58;;;;;;;6.93;2.03;;;;;;;18.72;33.73;100261.31;4944749;28;102865;-67
2024/04/11 10:36:34;;;;;;;3.05;1.08;;;;;;;18.05;34.33;100259.34;4957512;28;103346;-67
2024/04/11 10:39:00;;;;;;;5.60;1.27;;;;;;;18.60;34.44;100257.38;4953423;28;103314;-68
2024/04/11 10:41:32;;;;;;;6.93;1.70;;;;;;;18.75;31.64;100253.88;4955190;28;103365;-67
2024/04/11 10:44:06;;;;;;;4.97;1.40;;;;;;;18.05;33.68;100254.84;4959423;28;102838;-67
2024/04/11 10:46:33;;;;;;;4.10;1.63;;;;;;;17.92;35.01;100267.13;4944971;28;103369;-67
2024/04/11 10:49:15;;;;;;;5.47;1.20;;;;;;;18.83;34.47;100256.50;4952947;28;103490;-67
2024/04/11 10:51:42;;;;;;;4.50;1.40;;;;;;;19.60;30.95;100257.97;4955088;28;103293;-67
2024/04/11 10:54:09;;;;;;;8.23;1.90;;;;;;;18.48;31.40;100261.53;4947759;28;102965;-66
2024/04/11 10:56:49;;;;;;;5.30;1.58;;;;;;;19.77;31.82;100257.72;4960826;28;103314;-67
2024/04/11 10:59:17;;;;;;;13.68;1.50;;;;;;;19.52;32.44;100255.38;4959183;28;103290;-67
2024/04/11 11:02:02;;;;;;;6.85;1.42;;;;;;;20.27;33.00;100263.22;4954134;28;102782;-67
2024/04/11 11:04:30;;;;;;;6.22;1.52;;;;;;;20.39;28.92;100250.91;4956034;28;102803;-66
2024/04/11 11:06:59;;;;;;;6.40;1.45;;;;;;;19.72;30.60;100253.75;4952427;28;103296;-67
2024/04/11 11:09:29;;;;;;;7.13;1.60;;;;;;;17.98;33.50;100237.78;4948947;28;103250;-67
2024/04/11 11:11:56;;;;;;;7.47;1.50;;;;;;;18.58;32.41;100242.47;4957988;28;103088;-68
2024/04/11 11:14:24;;;;;;;4.03;1.35;;;;;;;19.26;31.63;100240.59;4940961;28;102808;-67
2024/04/11 11:16:51;;;;;;;9.43;1.85;;;;;;;17.48;34.14;100253.31;4941484;28;104233;-67
2024/04/11 11:19:17;;;;;;;10.57;1.60;;;;;;;17.92;33.88;100237.66;4958909;28;104898;-67
2024/04/11 11:21:50;;;;;;;6.15;1.67;;;;;;;19.28;32.22;100238.53;4970804;28;103121;-67
2024/04/11 11:24:24;;;;;;;7.70;1.77;;;;;;;18.38;31.73;100238.50;4937362;28;103200;-67
2024/04/11 11:26:58;;;;;;;5.68;1.42;;;;;;;18.24;34.22;100231.25;4943855;28;108437;-67
2024/04/11 11:29:28;;;;;;;5.93;1.40;;;;;;;19.49;32.55;100234.25;4955777;28;102892;-67
2024/04/11 11:32:01;;;;;;;6.25;1.75;;;;;;;20.00;30.53;100225.31;4968084;28;103378;-67